sensor_id;sensor_type;location;lat;lon;timestamp;pressure;altitude;pressure_sealevel;temperature;humidity
68525;BME280;55524;51.380;13.372;2023-03-01T00:01:05;102046.72;;;-5.22;100.00
68525;BME280;55524;51.380;13.372;2023-03-01T00:03:32;102046.97;;;-5.17;100.00
68525;BME280;55524;51.380;13.372;2023-03-01T00:05:58;102039.22;;;-5.17;100.00
68525;BME280;55524;51.380;13.372;2023-03-01T00:08:25;102041.81;;;-5.17;100.00
68525;BME280;55524;51.380;13.372;2023-03-01T00:11:23;102033.09;;;-5.19;100.00
68525;BME280;55524;51.380;13.372;2023-03-01T00:13:52;102036.47;;;-5.20;100.00
68525;BME280;55524;51.380;13.372;2023-03-01T00:16:45;102034.38;;;-5.27;100.00
68525;BME280;55524;51.380;13.372;2023-03-01T00:19:18;102026.41;;;-5.32;100.00
68525;BME280;55524;51.380;13.372;2023-03-01T00:21:45;102015.72;;;-5.39;100.00
68525;BME280;55524;51.380;13.372;2023-03-01T00:24:11;102015.66;;;-5.41;100.00
68525;BME280;55524;51.380;13.372;2023-03-01T00:26:38;102018.75;;;-5.47;100.00
68525;BME280;55524;51.380;13.372;2023-03-01T00:29:04;102015.06;;;-5.52;100.00
68525;BME280;55524;51.380;13.372;2023-03-01T00:31:32;102011.38;;;-5.57;100.00
68525;BME280;55524;51.380;13.372;2023-03-01T00:34:03;102014.47;;;-5.62;100.00
68525;BME280;55524;51.380;13.372;2023-03-01T00:36:32;102008.97;;;-5.70;100.00
68525;BME280;55524;51.380;13.372;2023-03-01T00:38:59;102004.69;;;-5.70;100.00
68525;BME280;55524;51.380;13.372;2023-03-01T00:41:43;102003.53;;;-5.75;100.00
68525;BME280;55524;51.380;13.372;2023-03-01T00:44:11;102010.06;;;-5.81;100.00
68525;BME280;55524;51.380;13.372;2023-03-01T00:46:37;102017.03;;;-5.79;100.00
68525;BME280;55524;51.380;13.372;2023-03-01T00:49:04;102017.16;;;-5.77;100.00
68525;BME280;55524;51.380;13.372;2023-03-01T00:51:31;102013.59;;;-5.79;100.00
68525;BME280;55524;51.380;13.372;2023-03-01T00:53:59;102012.78;;;-5.78;100.00
68525;BME280;55524;51.380;13.372;2023-03-01T00:56:27;101998.88;;;-5.82;100.00
68525;BME280;55524;51.380;13.372;2023-03-01T00:58:53;102001.03;;;-5.89;100.00
68525;BME280;55524;51.380;13.372;2023-03-01T01:01:26;101996.56;;;-5.93;100.00
68525;BME280;55524;51.380;13.372;2023-03-01T01:04:07;102002.88;;;-6.03;100.00
68525;BME280;55524;51.380;13.372;2023-03-01T01:06:36;101993.41;;;-6.04;100.00
68525;BME280;55524;51.380;13.372;2023-03-01T01:09:05;101989.84;;;-6.06;100.00
68525;BME280;55524;51.380;13.372;2023-03-01T01:11:33;102000.88;;;-6.09;100.00
68525;BME280;55524;51.380;13.372;2023-03-01T01:14:01;101999.06;;;-6.10;100.00
68525;BME280;55524;51.380;13.372;2023-03-01T01:16:29;101989.84;;;-6.06;100.00
68525;BME280;55524;51.380;13.372;2023-03-01T01:18:56;101986.31;;;-6.08;100.00
68525;BME280;55524;51.380;13.372;2023-03-01T01:21:24;101994.03;;;-6.08;100.00
68525;BME280;55524;51.380;13.372;2023-03-01T01:23:50;101985.56;;;-6.06;100.00
68525;BME280;55524;51.380;13.372;2023-03-01T01:26:23;101997.03;;;-6.01;100.00
68525;BME280;55524;51.380;13.372;2023-03-01T01:28:50;101998.84;;;-5.98;100.00
68525;BME280;55524;51.380;13.372;2023-03-01T01:31:17;101993.81;;;-5.97;100.00
68525;BME280;55524;51.380;13.372;2023-03-01T01:33:44;101982.78;;;-5.94;100.00
68525;BME280;55524;51.380;13.372;2023-03-01T01:36:11;101987.88;;;-5.96;100.00
68525;BME280;55524;51.380;13.372;2023-03-01T01:38:38;101975.69;;;-5.98;100.00
68525;BME280;55524;51.380;13.372;2023-03-01T01:41:05;101977.56;;;-5.96;100.00
68525;BME280;55524;51.380;13.372;2023-03-01T01:43:37;101974.75;;;-6.00;100.00
68525;BME280;55524;51.380;13.372;2023-03-01T01:46:10;101967.03;;;-6.00;100.00
68525;BME280;55524;51.380;13.372;2023-03-01T01:48:45;101962.13;;;-5.96;100.00
68525;BME280;55524;51.380;13.372;2023-03-01T01:51:28;101968.16;;;-5.95;100.00
68525;BME280;55524;51.380;13.372;2023-03-01T01:54:12;101962.84;;;-5.98;100.00
68525;BME280;55524;51.380;13.372;2023-03-01T01:56:42;101958.66;;;-6.12;100.00
68525;BME280;55524;51.380;13.372;2023-03-01T01:59:10;101962.75;;;-6.16;100.00
68525;BME280;55524;51.380;13.372;2023-03-01T02:01:37;101964.50;;;-6.15;100.00
68525;BME280;55524;51.380;13.372;2023-03-01T02:04:04;101957.59;;;-6.16;100.00
68525;BME280;55524;51.380;13.372;2023-03-01T02:06:38;101963.19;;;-6.23;100.00
68525;BME280;55524;51.380;13.372;2023-03-01T02:09:11;101966.47;;;-6.26;100.00
68525;BME280;55524;51.380;13.372;2023-03-01T02:11:38;101960.94;;;-6.33;100.00
68525;BME280;55524;51.380;13.372;2023-03-01T02:14:05;101955.44;;;-6.39;100.00
68525;BME280;55524;51.380;13.372;2023-03-01T02:16:32;101962.34;;;-6.38;100.00
68525;BME280;55524;51.380;13.372;2023-03-01T02:18:58;101957.03;;;-6.41;100.00
68525;BME280;55524;51.380;13.372;2023-03-01T02:26:55;101959.97;;;-6.50;100.00
68525;BME280;55524;51.380;13.372;2023-03-01T02:29:25;101968.66;;;-6.33;100.00
68525;BME280;55524;51.380;13.372;2023-03-01T02:31:54;101963.41;;;-6.35;100.00
68525;BME280;55524;51.380;13.372;2023-03-01T02:34:24;101953.94;;;-6.36;100.00
68525;BME280;55524;51.380;13.372;2023-03-01T02:37:01;101954.00;;;-6.34;100.00
68525;BME280;55524;51.380;13.372;2023-03-01T02:39:44;101956.56;;;-6.34;100.00
68525;BME280;55524;51.380;13.372;2023-03-01T02:42:17;101957.84;;;-6.43;100.00
68525;BME280;55524;51.380;13.372;2023-03-01T02:44:45;101955.63;;;-6.51;100.00
68525;BME280;55524;51.380;13.372;2023-03-01T02:47:12;101949.69;;;-6.50;100.00
68525;BME280;55524;51.380;13.372;2023-03-01T02:49:38;101947.75;;;-6.54;100.00
68525;BME280;55524;51.380;13.372;2023-03-01T02:57:28;101943.34;;;-6.57;100.00
68525;BME280;55524;51.380;13.372;2023-03-01T02:59:57;101937.22;;;-6.59;100.00
68525;BME280;55524;51.380;13.372;2023-03-01T03:02:29;101939.72;;;-6.60;100.00
68525;BME280;55524;51.380;13.372;2023-03-01T03:05:31;101936.09;;;-6.64;100.00
68525;BME280;55524;51.380;13.372;2023-03-01T03:08:00;101940.34;;;-6.64;100.00
68525;BME280;55524;51.380;13.372;2023-03-01T03:10:34;101932.53;;;-6.66;100.00
68525;BME280;55524;51.380;13.372;2023-03-01T03:13:06;101928.00;;;-6.70;100.00
68525;BME280;55524;51.380;13.372;2023-03-01T03:15:34;101938.84;;;-6.76;100.00
68525;BME280;55524;51.380;13.372;2023-03-01T03:18:07;101932.72;;;-6.78;100.00
68525;BME280;55524;51.380;13.372;2023-03-01T03:20:35;101934.16;;;-6.83;100.00
68525;BME280;55524;51.380;13.372;2023-03-01T03:23:02;101938.47;;;-6.82;100.00
68525;BME280;55524;51.380;13.372;2023-03-01T03:25:29;101930.50;;;-6.86;100.00
68525;BME280;55524;51.380;13.372;2023-03-01T03:27:56;101938.91;;;-6.89;100.00
68525;BME280;55524;51.380;13.372;2023-03-01T03:30:31;101939.84;;;-6.88;100.00
68525;BME280;55524;51.380;13.372;2023-03-01T03:32:58;101940.16;;;-6.97;100.00
68525;BME280;55524;51.380;13.372;2023-03-01T03:35:31;101937.59;;;-6.97;100.00
68525;BME280;55524;51.380;13.372;2023-03-01T03:37:58;101933.25;;;-6.98;100.00
68525;BME280;55524;51.380;13.372;2023-03-01T03:40:39;101936.72;;;-6.98;100.00
68525;BME280;55524;51.380;13.372;2023-03-01T03:43:08;101929.91;;;-6.97;100.00
68525;BME280;55524;51.380;13.372;2023-03-01T03:45:35;101928.13;;;-6.98;100.00
68525;BME280;55524;51.380;13.372;2023-03-01T03:48:03;101916.97;;;-6.99;100.00
68525;BME280;55524;51.380;13.372;2023-03-01T03:50:31;101928.75;;;-6.87;100.00
68525;BME280;55524;51.380;13.372;2023-03-01T03:52:57;101921.03;;;-6.87;100.00
68525;BME280;55524;51.380;13.372;2023-03-01T03:55:25;101924.06;;;-6.80;100.00
68525;BME280;55524;51.380;13.372;2023-03-01T03:57:58;101922.88;;;-6.70;100.00
68525;BME280;55524;51.380;13.372;2023-03-01T04:00:28;101925.38;;;-6.72;100.00
68525;BME280;55524;51.380;13.372;2023-03-01T04:02:54;101925.19;;;-6.75;100.00
68525;BME280;55524;51.380;13.372;2023-03-01T04:05:22;101922.63;;;-6.75;100.00
68525;BME280;55524;51.380;13.372;2023-03-01T04:07:49;101925.13;;;-6.76;100.00
68525;BME280;55524;51.380;13.372;2023-03-01T04:10:27;101921.56;;;-6.78;100.00
68525;BME280;55524;51.380;13.372;2023-03-01T04:12:54;101919.63;;;-6.82;100.00
68525;BME280;55524;51.380;13.372;2023-03-01T04:15:23;101923.50;;;-6.89;100.00
68525;BME280;55524;51.380;13.372;2023-03-01T04:17:51;101926.94;;;-6.74;100.00
68525;BME280;55524;51.380;13.372;2023-03-01T04:20:22;101920.47;;;-6.52;100.00
68525;BME280;55524;51.380;13.372;2023-03-01T04:22:58;101934.13;;;-6.68;100.00
68525;BME280;55524;51.380;13.372;2023-03-01T04:25:25;101926.19;;;-6.73;100.00
68525;BME280;55524;51.380;13.372;2023-03-01T04:27:52;101928.13;;;-6.69;100.00
68525;BME280;55524;51.380;13.372;2023-03-01T04:30:18;101922.78;;;-6.72;100.00
68525;BME280;55524;51.380;13.372;2023-03-01T04:32:44;101926.06;;;-6.74;100.00
68525;BME280;55524;51.380;13.372;2023-03-01T04:35:11;101931.22;;;-6.74;100.00
68525;BME280;55524;51.380;13.372;2023-03-01T04:37:37;101926.06;;;-6.74;100.00
68525;BME280;55524;51.380;13.372;2023-03-01T04:40:04;101923.31;;;-6.77;100.00
68525;BME280;55524;51.380;13.372;2023-03-01T04:42:43;101925.75;;;-6.80;100.00
68525;BME280;55524;51.380;13.372;2023-03-01T04:45:10;101925.13;;;-6.76;100.00
68525;BME280;55524;51.380;13.372;2023-03-01T04:47:43;101927.56;;;-6.78;100.00
68525;BME280;55524;51.380;13.372;2023-03-01T04:50:14;101925.81;;;-6.79;100.00
68525;BME280;55524;51.380;13.372;2023-03-01T04:52:41;101924.88;;;-6.81;100.00
68525;BME280;55524;51.380;13.372;2023-03-01T04:55:08;101919.63;;;-6.82;100.00
68525;BME280;55524;51.380;13.372;2023-03-01T04:57:35;101912.78;;;-6.82;100.00
68525;BME280;55524;51.380;13.372;2023-03-01T05:00:02;101918.09;;;-6.79;100.00
68525;BME280;55524;51.380;13.372;2023-03-01T05:05:14;101921.38;;;-6.81;100.00
68525;BME280;55524;51.380;13.372;2023-03-01T05:07:41;101911.47;;;-6.90;100.00
68525;BME280;55524;51.380;13.372;2023-03-01T05:10:07;101912.91;;;-6.95;100.00
68525;BME280;55524;51.380;13.372;2023-03-01T05:12:34;101904.94;;;-7.00;100.00
68525;BME280;55524;51.380;13.372;2023-03-01T05:15:00;101899.53;;;-7.04;100.00
68525;BME280;55524;51.380;13.372;2023-03-01T05:17:26;101899.25;;;-7.09;100.00
68525;BME280;55524;51.380;13.372;2023-03-01T05:19:53;101899.88;;;-7.13;100.00
68525;BME280;55524;51.380;13.372;2023-03-01T05:22:21;101903.78;;;-7.20;100.00
68525;BME280;55524;51.380;13.372;2023-03-01T05:24:48;101905.28;;;-7.23;100.00
68525;BME280;55524;51.380;13.372;2023-03-01T05:27:15;101908.66;;;-7.24;100.00
68525;BME280;55524;51.380;13.372;2023-03-01T05:29:41;101906.72;;;-7.28;100.00
68525;BME280;55524;51.380;13.372;2023-03-01T05:32:07;101913.84;;;-7.37;100.00
68525;BME280;55524;51.380;13.372;2023-03-01T05:34:36;101918.13;;;-7.38;100.00
68525;BME280;55524;51.380;13.372;2023-03-01T05:37:03;101921.28;;;-7.42;100.00
68525;BME280;55524;51.380;13.372;2023-03-01T05:39:31;101913.31;;;-7.47;100.00
68525;BME280;55524;51.380;13.372;2023-03-01T05:42:00;101908.88;;;-7.49;100.00
68525;BME280;55524;51.380;13.372;2023-03-01T05:44:28;101920.22;;;-7.46;100.00
68525;BME280;55524;51.380;13.372;2023-03-01T05:46:54;101918.53;;;-7.45;100.00
68525;BME280;55524;51.380;13.372;2023-03-01T05:49:22;101921.22;;;-7.44;100.00
68525;BME280;55524;51.380;13.372;2023-03-01T05:51:51;101916.09;;;-7.44;100.00
68525;BME280;55524;51.380;13.372;2023-03-01T05:54:19;101919.72;;;-7.40;100.00
68525;BME280;55524;51.380;13.372;2023-03-01T05:56:46;101918.91;;;-7.39;100.00
68525;BME280;55524;51.380;13.372;2023-03-01T05:59:12;101925.75;;;-7.39;100.00
68525;BME280;55524;51.380;13.372;2023-03-01T06:01:39;101927.41;;;-7.40;100.00
68525;BME280;55524;51.380;13.372;2023-03-01T06:04:06;101923.66;;;-7.45;100.00
68525;BME280;55524;51.380;13.372;2023-03-01T06:06:38;101930.59;;;-7.44;100.00
68525;BME280;55524;51.380;13.372;2023-03-01T06:09:06;101933.94;;;-7.45;100.00
68525;BME280;55524;51.380;13.372;2023-03-01T06:11:36;101923.66;;;-7.45;100.00
68525;BME280;55524;51.380;13.372;2023-03-01T06:14:03;101920.59;;;-7.39;100.00
68525;BME280;55524;51.380;13.372;2023-03-01T06:16:30;101925.75;;;-7.39;100.00
68525;BME280;55524;51.380;13.372;2023-03-01T06:18:56;101929.19;;;-7.39;100.00
68525;BME280;55524;51.380;13.372;2023-03-01T06:21:22;101926.00;;;-7.35;100.00
68525;BME280;55524;51.380;13.372;2023-03-01T06:23:48;101928.91;;;-7.29;100.00
68525;BME280;55524;51.380;13.372;2023-03-01T06:26:15;101934.16;;;-7.27;100.00
68525;BME280;55524;51.380;13.372;2023-03-01T06:28:41;101929.28;;;-7.23;100.00
68525;BME280;55524;51.380;13.372;2023-03-01T06:31:08;101936.38;;;-7.19;100.00
68525;BME280;55524;51.380;13.372;2023-03-01T06:33:34;101940.09;;;-7.13;100.00
68525;BME280;55524;51.380;13.372;2023-03-01T06:36:02;101937.97;;;-7.06;100.00
68525;BME280;55524;51.380;13.372;2023-03-01T06:38:28;101939.28;;;-6.98;100.00
68525;BME280;55524;51.380;13.372;2023-03-01T06:40:55;101929.44;;;-6.90;100.00
68525;BME280;55524;51.380;13.372;2023-03-01T06:43:23;101916.25;;;-6.81;100.00
68525;BME280;55524;51.380;13.372;2023-03-01T06:45:50;101926.00;;;-6.76;100.00
68525;BME280;55524;51.380;13.372;2023-03-01T06:48:16;101931.66;;;-6.66;100.00
68525;BME280;55524;51.380;13.372;2023-03-01T06:50:44;101928.81;;;-6.56;100.00
68525;BME280;55524;51.380;13.372;2023-03-01T06:53:10;101923.59;;;-6.41;100.00
68525;BME280;55524;51.380;13.372;2023-03-01T06:55:37;101915.53;;;-6.33;100.00
68525;BME280;55524;51.380;13.372;2023-03-01T06:58:04;101917.78;;;-6.23;100.00
68525;BME280;55524;51.380;13.372;2023-03-01T07:00:30;101921.91;;;-6.10;100.00
68525;BME280;55524;51.380;13.372;2023-03-01T07:02:59;101915.81;;;-5.96;100.00
68525;BME280;55524;51.380;13.372;2023-03-01T07:05:28;101909.53;;;-5.84;100.00
68525;BME280;55524;51.380;13.372;2023-03-01T07:07:54;101908.69;;;-5.67;100.00
68525;BME280;55524;51.380;13.372;2023-03-01T07:10:21;101908.28;;;-5.58;100.00
68525;BME280;55524;51.380;13.372;2023-03-01T07:12:48;101903.88;;;-5.45;100.00
68525;BME280;55524;51.380;13.372;2023-03-01T07:15:14;101910.03;;;-5.25;100.00
68525;BME280;55524;51.380;13.372;2023-03-01T07:17:41;101901.44;;;-5.07;100.00
68525;BME280;55524;51.380;13.372;2023-03-01T07:20:07;101901.47;;;-4.89;100.00
68525;BME280;55524;51.380;13.372;2023-03-01T07:22:34;101899.47;;;-4.59;100.00
68525;BME280;55524;51.380;13.372;2023-03-01T07:25:00;101902.56;;;-4.31;100.00
68525;BME280;55524;51.380;13.372;2023-03-01T07:27:26;101900.31;;;-3.26;100.00
68525;BME280;55524;51.380;13.372;2023-03-01T07:29:53;101861.03;;;-0.27;96.08
68525;BME280;55524;51.380;13.372;2023-03-01T07:32:19;101794.50;;;1.51;81.25
68525;BME280;55524;51.380;13.372;2023-03-01T07:34:45;101725.88;;;2.97;71.46
68525;BME280;55524;51.380;13.372;2023-03-01T07:37:11;101682.53;;;3.86;66.30
68525;BME280;55524;51.380;13.372;2023-03-01T07:39:38;101681.13;;;4.23;64.33
68525;BME280;55524;51.380;13.372;2023-03-01T07:42:04;101652.88;;;4.98;61.83
68525;BME280;55524;51.380;13.372;2023-03-01T07:44:30;101631.19;;;5.33;58.97
68525;BME280;55524;51.380;13.372;2023-03-01T07:46:56;101668.81;;;5.47;60.53
68525;BME280;55524;51.380;13.372;2023-03-01T07:49:24;101621.75;;;6.04;55.99
68525;BME280;55524;51.380;13.372;2023-03-01T07:51:52;101644.34;;;5.48;58.42
68525;BME280;55524;51.380;13.372;2023-03-01T07:54:18;101659.22;;;5.54;58.55
68525;BME280;55524;51.380;13.372;2023-03-01T07:56:45;101652.25;;;5.63;58.64
68525;BME280;55524;51.380;13.372;2023-03-01T07:59:11;101656.69;;;5.83;58.19
68525;BME280;55524;51.380;13.372;2023-03-01T08:01:37;101626.09;;;6.43;55.45
68525;BME280;55524;51.380;13.372;2023-03-01T08:04:04;101630.50;;;5.95;56.57
68525;BME280;55524;51.380;13.372;2023-03-01T08:06:35;101658.44;;;5.87;57.40
68525;BME280;55524;51.380;13.372;2023-03-01T08:09:01;101653.22;;;6.53;56.84
68525;BME280;55524;51.380;13.372;2023-03-01T08:11:27;101623.44;;;6.60;55.03
68525;BME280;55524;51.380;13.372;2023-03-01T08:13:57;101644.47;;;6.32;55.86
68525;BME280;55524;51.380;13.372;2023-03-01T08:16:23;101670.59;;;5.59;58.66
68525;BME280;55524;51.380;13.372;2023-03-01T08:18:49;101673.34;;;6.03;58.22
68525;BME280;55524;51.380;13.372;2023-03-01T08:21:18;101683.69;;;5.51;59.36
68525;BME280;55524;51.380;13.372;2023-03-01T08:23:44;101697.66;;;5.52;60.00
68525;BME280;55524;51.380;13.372;2023-03-01T08:28:38;101724.19;;;4.57;64.20
68525;BME280;55524;51.380;13.372;2023-03-01T08:31:25;101733.38;;;4.12;63.81
68525;BME280;55524;51.380;13.372;2023-03-01T08:33:55;101767.97;;;3.87;67.24
68525;BME280;55524;51.380;13.372;2023-03-01T08:36:23;101765.25;;;3.78;68.81
68525;BME280;55524;51.380;13.372;2023-03-01T08:38:50;101768.00;;;3.91;68.94
68525;BME280;55524;51.380;13.372;2023-03-01T08:41:16;101763.69;;;3.95;67.90
68525;BME280;55524;51.380;13.372;2023-03-01T08:43:43;101775.56;;;3.65;70.21
68525;BME280;55524;51.380;13.372;2023-03-01T08:46:10;101777.28;;;3.65;71.24
68525;BME280;55524;51.380;13.372;2023-03-01T08:48:36;101778.13;;;3.64;71.07
68525;BME280;55524;51.380;13.372;2023-03-01T08:51:29;101774.63;;;3.60;71.49
68525;BME280;55524;51.380;13.372;2023-03-01T08:53:55;101791.47;;;3.18;73.86
68525;BME280;55524;51.380;13.372;2023-03-01T08:56:21;101772.75;;;3.50;72.22
68525;BME280;55524;51.380;13.372;2023-03-01T08:58:48;101782.00;;;3.27;72.83
68525;BME280;55524;51.380;13.372;2023-03-01T09:01:17;101773.13;;;3.15;73.41
68525;BME280;55524;51.380;13.372;2023-03-01T09:03:44;101772.31;;;3.19;74.63
68525;BME280;55524;51.380;13.372;2023-03-01T09:06:11;101764.78;;;3.41;72.19
68525;BME280;55524;51.380;13.372;2023-03-01T09:08:40;101758.38;;;3.87;72.08
68525;BME280;55524;51.380;13.372;2023-03-01T09:11:10;101744.47;;;3.90;71.20
68525;BME280;55524;51.380;13.372;2023-03-01T09:13:37;101731.63;;;4.14;69.32
68525;BME280;55524;51.380;13.372;2023-03-01T09:16:06;101726.47;;;4.22;69.35
68525;BME280;55524;51.380;13.372;2023-03-01T09:18:33;101738.63;;;4.14;70.18
68525;BME280;55524;51.380;13.372;2023-03-01T09:21:11;101741.84;;;3.91;69.85
68525;BME280;55524;51.380;13.372;2023-03-01T09:23:41;101747.91;;;3.84;71.30
68525;BME280;55524;51.380;13.372;2023-03-01T09:26:09;101748.56;;;4.53;70.49
68525;BME280;55524;51.380;13.372;2023-03-01T09:28:36;101711.91;;;4.49;67.92
68525;BME280;55524;51.380;13.372;2023-03-01T09:31:03;101705.03;;;4.64;66.96
68525;BME280;55524;51.380;13.372;2023-03-01T09:33:32;101691.88;;;4.55;66.20
68525;BME280;55524;51.380;13.372;2023-03-01T09:35:59;101682.44;;;4.77;63.97
68525;BME280;55524;51.380;13.372;2023-03-01T09:38:27;101686.69;;;4.63;65.10
68525;BME280;55524;51.380;13.372;2023-03-01T09:40:53;101677.25;;;4.86;65.17
68525;BME280;55524;51.380;13.372;2023-03-01T09:43:41;101686.69;;;4.63;64.93
68525;BME280;55524;51.380;13.372;2023-03-01T09:46:13;101671.13;;;4.86;64.21
68525;BME280;55524;51.380;13.372;2023-03-01T09:48:51;101689.38;;;4.72;65.45
68525;BME280;55524;51.380;13.372;2023-03-01T09:51:26;101672.75;;;4.65;63.87
68525;BME280;55524;51.380;13.372;2023-03-01T09:53:55;101666.69;;;4.73;63.58
68525;BME280;55524;51.380;13.372;2023-03-01T09:56:30;101656.25;;;4.77;62.10
68525;BME280;55524;51.380;13.372;2023-03-01T10:07:40;101669.53;;;5.12;63.76
68525;BME280;55524;51.380;13.372;2023-03-01T10:10:06;101640.91;;;5.86;60.11
68525;BME280;55524;51.380;13.372;2023-03-01T10:12:39;101625.16;;;5.69;59.03
68525;BME280;55524;51.380;13.372;2023-03-01T10:15:19;101658.16;;;5.10;61.73
68525;BME280;55524;51.380;13.372;2023-03-01T10:18:04;101665.22;;;5.25;63.01
68525;BME280;55524;51.380;13.372;2023-03-01T10:20:46;101667.53;;;4.64;63.03
68525;BME280;55524;51.380;13.372;2023-03-01T10:23:17;101683.28;;;4.72;63.99
68525;BME280;55524;51.380;13.372;2023-03-01T10:31:25;101673.41;;;4.38;64.21
68525;BME280;55524;51.380;13.372;2023-03-01T10:33:55;101661.25;;;4.40;62.77
68525;BME280;55524;51.380;13.372;2023-03-01T10:36:23;101663.91;;;4.51;64.19
68525;BME280;55524;51.380;13.372;2023-03-01T10:38:54;101675.31;;;4.56;65.38
68525;BME280;55524;51.380;13.372;2023-03-01T10:41:22;101663.06;;;4.54;64.14
68525;BME280;55524;51.380;13.372;2023-03-01T10:43:57;101674.94;;;4.10;64.16
68525;BME280;55524;51.380;13.372;2023-03-01T10:46:30;101678.13;;;3.80;65.63
68525;BME280;55524;51.380;13.372;2023-03-01T10:51:43;101680.91;;;3.99;64.53
68525;BME280;55524;51.380;13.372;2023-03-01T10:56:51;101665.91;;;4.89;63.86
68525;BME280;55524;51.380;13.372;2023-03-01T10:59:36;101659.84;;;4.91;64.15
68525;BME280;55524;51.380;13.372;2023-03-01T11:02:16;101666.53;;;4.48;63.91
68525;BME280;55524;51.380;13.372;2023-03-01T11:05:00;101647.47;;;4.67;62.42
68525;BME280;55524;51.380;13.372;2023-03-01T11:07:27;101608.31;;;4.92;59.04
68525;BME280;55524;51.380;13.372;2023-03-01T11:09:54;101590.06;;;5.13;57.39
68525;BME280;55524;51.380;13.372;2023-03-01T11:12:21;101592.31;;;4.37;57.76
68525;BME280;55524;51.380;13.372;2023-03-01T11:14:53;101602.88;;;4.55;58.37
68525;BME280;55524;51.380;13.372;2023-03-01T11:17:28;101600.38;;;4.78;57.77
68525;BME280;55524;51.380;13.372;2023-03-01T11:20:29;101601.31;;;4.88;58.77
68525;BME280;55524;51.380;13.372;2023-03-01T11:23:14;101590.91;;;5.06;57.09
68525;BME280;55524;51.380;13.372;2023-03-01T11:25:44;101590.97;;;5.15;57.06
68525;BME280;55524;51.380;13.372;2023-03-01T11:28:17;101577.00;;;5.15;55.81
68525;BME280;55524;51.380;13.372;2023-03-01T11:31:06;101574.44;;;5.61;56.72
68525;BME280;55524;51.380;13.372;2023-03-01T11:33:57;101569.22;;;5.65;56.10
68525;BME280;55524;51.380;13.372;2023-03-01T11:36:51;101561.25;;;5.16;55.74
68525;BME280;55524;51.380;13.372;2023-03-01T11:42:29;101552.59;;;5.62;55.42
68525;BME280;55524;51.380;13.372;2023-03-01T11:45:02;101544.69;;;5.33;55.04
68525;BME280;55524;51.380;13.372;2023-03-01T11:48:06;101531.59;;;5.30;55.17
68525;BME280;55524;51.380;13.372;2023-03-01T11:50:44;101535.09;;;5.23;55.56
68525;BME280;55524;51.380;13.372;2023-03-01T11:56:34;101499.28;;;5.66;54.00
68525;BME280;55524;51.380;13.372;2023-03-01T12:33:10;101403.00;;;6.31;49.51
68525;BME280;55524;51.380;13.372;2023-03-01T12:38:42;101361.88;;;6.25;46.36
68525;BME280;55524;51.380;13.372;2023-03-01T12:49:45;101376.69;;;6.42;47.25
68525;BME280;55524;51.380;13.372;2023-03-01T12:52:52;101368.84;;;6.35;47.39
68525;BME280;55524;51.380;13.372;2023-03-01T12:55:37;101353.03;;;6.45;46.32
68525;BME280;55524;51.380;13.372;2023-03-01T13:04:39;101341.50;;;6.70;45.38
68525;BME280;55524;51.380;13.372;2023-03-01T13:09:41;101341.59;;;6.55;45.37
68525;BME280;55524;51.380;13.372;2023-03-01T13:12:44;101332.56;;;6.96;44.36
68525;BME280;55524;51.380;13.372;2023-03-01T13:17:54;101320.22;;;7.05;44.38
68525;BME280;55524;51.380;13.372;2023-03-01T13:20:32;101318.34;;;7.17;43.73
68525;BME280;55524;51.380;13.372;2023-03-01T13:31:09;101310.38;;;8.03;42.99
68525;BME280;55524;51.380;13.372;2023-03-01T13:33:45;101292.56;;;7.54;42.16
68525;BME280;55524;51.380;13.372;2023-03-01T13:39:05;101288.16;;;7.54;41.67
68525;BME280;55524;51.380;13.372;2023-03-01T13:41:54;101303.50;;;7.93;42.62
68525;BME280;55524;51.380;13.372;2023-03-01T13:47:15;101283.31;;;7.92;41.93
68525;BME280;55524;51.380;13.372;2023-03-01T13:49:47;101272.88;;;7.87;41.40
68525;BME280;55524;51.380;13.372;2023-03-01T13:54:59;101277.59;;;7.60;42.39
68525;BME280;55524;51.380;13.372;2023-03-01T13:57:37;101275.84;;;7.61;41.56
68525;BME280;55524;51.380;13.372;2023-03-01T14:00:24;101276.66;;;7.63;42.76
68525;BME280;55524;51.380;13.372;2023-03-01T14:03:20;101268.19;;;8.07;41.83
68525;BME280;55524;51.380;13.372;2023-03-01T14:08:28;101262.47;;;7.78;41.43
68525;BME280;55524;51.380;13.372;2023-03-01T14:19:36;101263.81;;;8.09;42.20
68525;BME280;55524;51.380;13.372;2023-03-01T14:22:25;101255.41;;;8.45;41.77
68525;BME280;55524;51.380;13.372;2023-03-01T14:24:56;101245.91;;;8.33;41.14
68525;BME280;55524;51.380;13.372;2023-03-01T14:27:33;101238.13;;;7.62;41.50
68525;BME280;55524;51.380;13.372;2023-03-01T14:30:03;101241.78;;;8.15;41.13
68525;BME280;55524;51.380;13.372;2023-03-01T14:32:36;101234.84;;;7.40;41.49
68525;BME280;55524;51.380;13.372;2023-03-01T14:35:02;101235.50;;;7.59;41.22
68525;BME280;55524;51.380;13.372;2023-03-01T14:37:31;101227.19;;;7.91;40.14
68525;BME280;55524;51.380;13.372;2023-03-01T14:39:59;101227.81;;;8.10;40.54
68525;BME280;55524;51.380;13.372;2023-03-01T14:42:30;101213.97;;;7.97;40.02
68525;BME280;55524;51.380;13.372;2023-03-01T14:45:02;101213.75;;;8.11;40.46
68525;BME280;55524;51.380;13.372;2023-03-01T14:47:31;101224.25;;;7.49;41.98
68525;BME280;55524;51.380;13.372;2023-03-01T14:52:40;101227.72;;;7.53;42.17
68525;BME280;55524;51.380;13.372;2023-03-01T14:55:26;101233.19;;;8.04;42.36
68525;BME280;55524;51.380;13.372;2023-03-01T14:57:53;101235.00;;;8.00;42.14
68525;BME280;55524;51.380;13.372;2023-03-01T15:00:28;101240.91;;;8.16;42.46
68525;BME280;55524;51.380;13.372;2023-03-01T15:02:58;101241.94;;;7.36;42.98
68525;BME280;55524;51.380;13.372;2023-03-01T15:05:31;101244.94;;;7.77;43.19